| time (UTC) | temp C | wind direction | speed KPH | gust KPH | rain 1hr cm | rain 24hr cm | rain mn cm | humidity % | barometer mb |
| 20260906224603 | 19 | 350 | 9.7 | 16.1 | 0.00 | 0.00 | 0.00 | 66 | 1016.0 |
| 20260906223100 | 19 | 312 | 12.9 | 19.3 | 0.00 | 0.00 | 0.00 | 67 | 1015.9 |
| 20260906221557 | 19 | 332 | 9.7 | 17.7 | 0.00 | 0.00 | 0.00 | 66 | 1016.0 |
| 20260906220105 | 19 | 9 | 11.3 | 19.3 | 0.00 | 0.00 | 0.00 | 66 | 1015.9 |
| 20260906214559 | 19 | 360 | 8.0 | 16.1 | 0.00 | 0.00 | 0.00 | 65 | 1015.8 |
| 20260906213102 | 19 | 352 | 12.9 | 19.3 | 0.00 | 0.00 | 0.00 | 67 | 1015.9 |
| 20260906211611 | 18 | 14 | 6.4 | 17.7 | 0.00 | 0.00 | 0.00 | 67 | 1016.1 |
| 20260906210105 | 18 | 5 | 9.7 | 19.3 | 0.00 | 0.00 | 0.00 | 66 | 1016.2 |
| 20260906204639 | 18 | 325 | 8.0 | 17.7 | 0.00 | 0.00 | 0.00 | 66 | 1016.3 |
| 20260906203101 | 18 | 332 | 6.4 | 19.3 | 0.00 | 0.00 | 0.00 | 67 | 1016.5 |
| 20260906201624 | 18 | 327 | 6.4 | 17.7 | 0.00 | 0.00 | 0.00 | 68 | 1016.5 |
| 20260906200114 | 18 | 11 | 6.4 | 14.5 | 0.00 | 0.00 | 0.00 | 68 | 1016.8 |
| 20260906194606 | 18 | 346 | 4.8 | 16.1 | 0.00 | 0.00 | 0.00 | 69 | 1016.8 |
| 20260906193104 | 18 | 31 | 11.3 | 20.9 | 0.00 | 0.00 | 0.00 | 70 | 1016.8 |
| 20260906191605 | 17 | 17 | 14.5 | 24.1 | 0.00 | 0.00 | 0.00 | 72 | 1016.6 |
| 20260906190120 | 17 | 13 | 19.3 | 29.0 | 0.00 | 0.00 | 0.00 | 73 | 1017.0 |
| 20260906184552 | 16 | 55 | 19.3 | 25.7 | 0.00 | 0.00 | 0.00 | 76 | 1016.9 |
| 20260906183103 | 16 | 9 | 20.9 | 33.8 | 0.00 | 0.00 | 0.00 | 77 | 1017.2 |
| 20260906181606 | 15 | 21 | 22.5 | 33.8 | 0.00 | 0.00 | 0.00 | 81 | 1017.2 |
| 20260906180104 | 15 | 29 | 17.7 | 27.4 | 0.00 | 0.00 | 0.00 | 85 | 1017.9 |
| 20260906174613 | 14 | 13 | 12.9 | 22.5 | 0.00 | 0.00 | 0.00 | 91 | 1018.3 |
| 20260906173107 | 14 | 347 | 14.5 | 20.9 | 0.00 | 0.00 | 0.00 | 92 | 1018.5 |
| 20260906171604 | 14 | 323 | 8.0 | 16.1 | 0.00 | 0.00 | 0.00 | 93 | 1018.6 |
| 20260906170115 | 13 | 322 | 9.7 | 16.1 | 0.00 | 0.00 | 0.00 | 93 | 1018.7 |
| 20260906164601 | 13 | 322 | 8.0 | 16.1 | 0.00 | 0.00 | 0.00 | 93 | 1018.6 |
| 20260906163100 | 13 | 328 | 9.7 | 17.7 | 0.00 | 0.00 | 0.00 | 92 | 1018.7 |
| 20260906161606 | 13 | 338 | 11.3 | 17.7 | 0.00 | 0.00 | 0.00 | 91 | 1018.8 |
| 20260906154604 | 15 | 331 | 6.4 | 17.7 | 0.00 | 0.00 | 0.00 | 84 | 1018.9 |
| 20260906153110 | 15 | 352 | 4.8 | 8.0 | 0.00 | 0.00 | 0.00 | 84 | 1018.9 |
| 20260906151603 | 15 | 69 | 0.0 | 4.8 | 0.00 | 0.00 | 0.00 | 84 | 1019.3 |
| 20260906150106 | 15 | 69 | 0.0 | 6.4 | 0.00 | 0.00 | 0.00 | 83 | 1019.6 |
| 20260906144618 | 15 | 53 | 4.8 | 16.1 | 0.00 | 0.00 | 0.00 | 82 | 1019.3 |
| 20260906143107 | 15 | 32 | 11.3 | 24.1 | 0.00 | 0.00 | 0.00 | 82 | 1019.2 |
| 20260906141618 | 16 | 48 | 12.9 | 24.1 | 0.00 | 0.00 | 0.00 | 81 | 1018.8 |
| 20260906140123 | 15 | 37 | 12.9 | 20.9 | 0.00 | 0.00 | 0.00 | 82 | 1018.9 |
| 20260906134624 | 15 | 63 | 9.7 | 16.1 | 0.00 | 0.00 | 0.00 | 84 | 1019.2 |
| 20260906133113 | 14 | 32 | 8.0 | 16.1 | 0.00 | 0.00 | 0.00 | 84 | 1019.0 |
| 20260906131611 | 14 | 5 | 9.7 | 16.1 | 0.00 | 0.00 | 0.00 | 85 | 1018.9 |
| 20260906130122 | 13 | 42 | 9.7 | 17.7 | 0.00 | 0.00 | 0.00 | 86 | 1019.2 |
| 20260906124620 | 13 | 336 | 8.0 | 14.5 | 0.00 | 0.00 | 0.00 | 86 | 1019.6 |
| 20260906123108 | 13 | 9 | 9.7 | 20.9 | 0.00 | 0.00 | 0.00 | 87 | 1019.3 |
| 20260906121620 | 13 | 5 | 11.3 | 17.7 | 0.00 | 0.00 | 0.00 | 87 | 1018.9 |
| 20260906120110 | 13 | 352 | 11.3 | 19.3 | 0.00 | 0.00 | 0.00 | 87 | 1018.9 |
| 20260906114636 | 13 | 5 | 11.3 | 19.3 | 0.00 | 0.00 | 0.00 | 87 | 1018.8 |
| 20260906113104 | 13 | 352 | 16.1 | 22.5 | 0.00 | 0.00 | 0.00 | 87 | 1018.7 |
| 20260906111626 | 12 | 5 | 12.9 | 20.9 | 0.00 | 0.00 | 0.00 | 87 | 1018.7 |
| 20260906110121 | 12 | 352 | 12.9 | 20.9 | 0.00 | 0.00 | 0.00 | 87 | 1018.8 |
| 20260906104605 | 12 | 360 | 12.9 | 24.1 | 0.00 | 0.00 | 0.00 | 87 | 1018.9 |
| 20260906103122 | 12 | 340 | 14.5 | 22.5 | 0.00 | 0.00 | 0.00 | 87 | 1019.1 |
| 20260906101611 | 12 | 350 | 17.7 | 25.7 | 0.00 | 0.00 | 0.00 | 86 | 1019.1 |
| 20260906100121 | 12 | 11 | 17.7 | 25.7 | 0.00 | 0.00 | 0.00 | 86 | 1018.9 |
| 20260906094604 | 13 | 335 | 17.7 | 25.7 | 0.00 | 0.00 | 0.00 | 85 | 1018.9 |
| 20260906093122 | 13 | 329 | 17.7 | 29.0 | 0.00 | 0.00 | 0.00 | 84 | 1018.8 |
| 20260906091607 | 13 | 350 | 17.7 | 32.2 | 0.00 | 0.00 | 0.00 | 84 | 1019.0 |
| 20260906090127 | 13 | 342 | 14.5 | 22.5 | 0.00 | 0.00 | 0.00 | 83 | 1019.3 |
| 20260906084612 | 13 | 349 | 16.1 | 24.1 | 0.00 | 0.00 | 0.00 | 82 | 1019.3 |
| 20260906083103 | 13 | 5 | 17.7 | 25.7 | 0.00 | 0.00 | 0.00 | 81 | 1019.3 |
| 20260906081623 | 13 | 5 | 16.1 | 27.4 | 0.00 | 0.00 | 0.00 | 81 | 1019.7 |
| 20260906080123 | 13 | 360 | 17.7 | 32.2 | 0.00 | 0.00 | 0.00 | 80 | 1019.6 |
| 20260906074607 | 13 | 346 | 17.7 | 30.6 | 0.00 | 0.00 | 0.00 | 79 | 1019.7 |
| 20260906073109 | 14 | 21 | 17.7 | 29.0 | 0.00 | 0.00 | 0.00 | 79 | 1019.7 |
| 20260906071605 | 14 | 15 | 19.3 | 29.0 | 0.00 | 0.00 | 0.00 | 78 | 1019.8 |
| 20260906070138 | 14 | 13 | 20.9 | 29.0 | 0.00 | 0.00 | 0.00 | 77 | 1019.8 |
| 20260906064605 | 15 | 13 | 20.9 | 29.0 | 0.00 | 0.00 | 0.00 | 77 | 1020.1 |
| 20260906063121 | 15 | 345 | 17.7 | 27.4 | 0.00 | 0.00 | 0.00 | 77 | 1020.3 |
| 20260906061545 | 15 | 17 | 20.9 | 29.0 | 0.00 | 0.00 | 0.00 | 77 | 1020.0 |
| 20260906060041 | 15 | 16 | 22.5 | 32.2 | 0.00 | 0.00 | 0.00 | 76 | 1020.0 |
| 20260906054541 | 15 | 13 | 24.1 | 33.8 | 0.00 | 0.00 | 0.00 | 75 | 1020.0 |
| 20260906053045 | 15 | 360 | 22.5 | 35.4 | 0.00 | 0.00 | 0.00 | 74 | 1020.0 |
| 20260906051540 | 15 | 360 | 25.7 | 35.4 | 0.00 | 0.00 | 0.00 | 72 | 1019.7 |
| 20260906050104 | 15 | 15 | 24.1 | 32.2 | 0.00 | 0.00 | 0.00 | 71 | 1019.8 |
| 20260906044539 | 15 | 13 | 19.3 | 32.2 | 0.00 | 0.00 | 0.00 | 69 | 1019.8 |
| 20260906043058 | 16 | 360 | 24.1 | 37.0 | 0.00 | 0.00 | 0.00 | 68 | 1019.4 |
| 20260906041545 | 16 | 10 | 24.1 | 38.6 | 0.00 | 0.00 | 0.00 | 68 | 1018.9 |
| 20260906040110 | 16 | 14 | 24.1 | 38.6 | 0.00 | 0.00 | 0.00 | 68 | 1018.8 |
| 20260906034547 | 16 | 17 | 27.4 | 40.2 | 0.00 | 0.00 | 0.00 | 67 | 1018.9 |
| 20260906033049 | 16 | 340 | 24.1 | 38.6 | 0.00 | 0.00 | 0.00 | 66 | 1018.9 |
| 20260906031544 | 16 | 351 | 24.1 | 33.8 | 0.00 | 0.00 | 0.00 | 65 | 1019.4 |
| 20260906030048 | 16 | 360 | 25.7 | 35.4 | 0.00 | 0.00 | 0.00 | 65 | 1018.4 |
| 20260906024546 | 16 | 360 | 24.1 | 40.2 | 0.00 | 0.00 | 0.00 | 64 | 1017.9 |
| 20260906023058 | 16 | 360 | 20.9 | 37.0 | 0.00 | 0.00 | 0.00 | 64 | 1018.1 |
| 20260906021545 | 17 | 352 | 25.7 | 38.6 | 0.00 | 0.00 | 0.00 | 62 | 1018.0 |
| 20260906020046 | 17 | 352 | 25.7 | 40.2 | 0.00 | 0.00 | 0.00 | 60 | 1018.0 |
| 20260906014555 | 18 | 23 | 22.5 | 33.8 | 0.00 | 0.00 | 0.00 | 57 | 1017.8 |
| 20260906013049 | 18 | 360 | 19.3 | 32.2 | 0.00 | 0.00 | 0.00 | 55 | 1018.0 |
| 20260906011554 | 20 | 352 | 22.5 | 33.8 | 0.00 | 0.00 | 0.00 | 51 | 1018.0 |
| 20260906010046 | 21 | 352 | 20.9 | 30.6 | 0.00 | 0.00 | 0.00 | 47 | 1018.1 |
| 20260906004541 | 22 | 19 | 19.3 | 27.4 | 0.00 | 0.00 | 0.00 | 38 | 1018.1 |
| 20260906003053 | 23 | 15 | 16.1 | 22.5 | 0.00 | 0.00 | 0.00 | 35 | 1018.1 |
| 20260906001546 | 23 | 23 | 16.1 | 24.1 | 0.00 | 0.00 | 0.00 | 34 | 1018.1 |
| 20260906000049 | 24 | 13 | 16.1 | 24.1 | 0.00 | 0.00 | 0.00 | 33 | 1018.0 |
| 20260905234556 | 23 | 30 | 14.5 | 25.7 | 0.00 | 0.00 | 0.00 | 34 | 1018.1 |
| 20260905233051 | 23 | 55 | 11.3 | 35.4 | 0.00 | 0.00 | 0.00 | 33 | 1018.1 |
| 20260905231546 | 24 | 24 | 12.9 | 24.1 | 0.00 | 0.00 | 0.00 | 33 | 1018.1 |
| 20260905230047 | 25 | 5 | 8.0 | 20.9 | 0.00 | 0.00 | 0.00 | 33 | 1018.2 |